sensor_id;sensor_type;location;lat;lon;timestamp;temperature;humidity
53268;DHT22;39156;51.176;6.738;2024-02-15T00:01:08;11.80;91.60
53268;DHT22;39156;51.176;6.738;2024-02-15T00:03:35;12.00;91.70
53268;DHT22;39156;51.176;6.738;2024-02-15T00:06:02;11.90;91.80
53268;DHT22;39156;51.176;6.738;2024-02-15T00:08:28;11.90;91.60
53268;DHT22;39156;51.176;6.738;2024-02-15T00:10:57;11.90;91.70
53268;DHT22;39156;51.176;6.738;2024-02-15T00:13:24;11.80;91.50
53268;DHT22;39156;51.176;6.738;2024-02-15T00:15:51;11.80;91.50
53268;DHT22;39156;51.176;6.738;2024-02-15T00:18:18;12.00;91.60
53268;DHT22;39156;51.176;6.738;2024-02-15T00:20:44;12.00;91.60
53268;DHT22;39156;51.176;6.738;2024-02-15T00:23:11;11.80;91.70
53268;DHT22;39156;51.176;6.738;2024-02-15T00:25:38;11.80;91.50
53268;DHT22;39156;51.176;6.738;2024-02-15T00:28:10;11.90;91.60
53268;DHT22;39156;51.176;6.738;2024-02-15T00:30:37;11.80;91.60
53268;DHT22;39156;51.176;6.738;2024-02-15T00:33:04;11.80;91.60
53268;DHT22;39156;51.176;6.738;2024-02-15T00:35:31;11.90;91.60
53268;DHT22;39156;51.176;6.738;2024-02-15T00:37:57;11.90;91.80
53268;DHT22;39156;51.176;6.738;2024-02-15T00:40:25;11.90;91.60
53268;DHT22;39156;51.176;6.738;2024-02-15T00:42:51;11.90;91.60
53268;DHT22;39156;51.176;6.738;2024-02-15T00:45:20;11.80;91.60
53268;DHT22;39156;51.176;6.738;2024-02-15T00:47:46;11.90;91.60
53268;DHT22;39156;51.176;6.738;2024-02-15T00:50:13;12.00;91.70
53268;DHT22;39156;51.176;6.738;2024-02-15T00:52:40;12.00;91.80
53268;DHT22;39156;51.176;6.738;2024-02-15T00:55:08;10.90;91.30
53268;DHT22;39156;51.176;6.738;2024-02-15T00:57:35;12.00;91.60
53268;DHT22;39156;51.176;6.738;2024-02-15T01:00:02;11.90;91.50
53268;DHT22;39156;51.176;6.738;2024-02-15T01:02:32;11.90;91.60
53268;DHT22;39156;51.176;6.738;2024-02-15T01:04:59;11.90;91.50
53268;DHT22;39156;51.176;6.738;2024-02-15T01:07:26;11.90;91.60
53268;DHT22;39156;51.176;6.738;2024-02-15T01:09:53;11.90;91.50
53268;DHT22;39156;51.176;6.738;2024-02-15T01:12:20;12.00;91.90
53268;DHT22;39156;51.176;6.738;2024-02-15T01:14:47;12.00;91.50
53268;DHT22;39156;51.176;6.738;2024-02-15T01:17:14;12.00;91.50
53268;DHT22;39156;51.176;6.738;2024-02-15T01:19:42;12.00;91.50
53268;DHT22;39156;51.176;6.738;2024-02-15T01:22:09;12.00;91.50
53268;DHT22;39156;51.176;6.738;2024-02-15T01:24:36;12.00;91.50
53268;DHT22;39156;51.176;6.738;2024-02-15T01:27:03;12.00;91.50
53268;DHT22;39156;51.176;6.738;2024-02-15T01:29:32;12.00;91.50
53268;DHT22;39156;51.176;6.738;2024-02-15T01:32:00;12.00;91.50
53268;DHT22;39156;51.176;6.738;2024-02-15T01:34:41;12.00;91.50
53268;DHT22;39156;51.176;6.738;2024-02-15T01:37:08;12.10;91.50
53268;DHT22;39156;51.176;6.738;2024-02-15T01:39:36;12.10;91.50
53268;DHT22;39156;51.176;6.738;2024-02-15T01:42:03;12.00;91.40
53268;DHT22;39156;51.176;6.738;2024-02-15T01:44:30;12.00;91.50
53268;DHT22;39156;51.176;6.738;2024-02-15T01:46:58;12.30;91.50
53268;DHT22;39156;51.176;6.738;2024-02-15T01:49:27;12.00;91.40
53268;DHT22;39156;51.176;6.738;2024-02-15T01:51:56;12.10;91.40
53268;DHT22;39156;51.176;6.738;2024-02-15T01:54:24;12.10;91.40
53268;DHT22;39156;51.176;6.738;2024-02-15T01:56:52;12.00;91.40
53268;DHT22;39156;51.176;6.738;2024-02-15T01:59:22;12.00;91.40
53268;DHT22;39156;51.176;6.738;2024-02-15T02:01:50;12.00;91.40
53268;DHT22;39156;51.176;6.738;2024-02-15T02:04:17;12.00;91.40
53268;DHT22;39156;51.176;6.738;2024-02-15T02:06:44;11.90;91.40
53268;DHT22;39156;51.176;6.738;2024-02-15T02:09:12;12.00;91.40
53268;DHT22;39156;51.176;6.738;2024-02-15T02:11:40;11.90;91.50
53268;DHT22;39156;51.176;6.738;2024-02-15T02:14:06;11.90;91.40
53268;DHT22;39156;51.176;6.738;2024-02-15T02:16:34;12.00;91.50
53268;DHT22;39156;51.176;6.738;2024-02-15T02:19:01;11.90;91.30
53268;DHT22;39156;51.176;6.738;2024-02-15T02:21:33;12.00;91.40
53268;DHT22;39156;51.176;6.738;2024-02-15T02:24:02;11.90;91.40
53268;DHT22;39156;51.176;6.738;2024-02-15T02:26:34;11.90;91.40
53268;DHT22;39156;51.176;6.738;2024-02-15T02:29:01;11.90;91.50
53268;DHT22;39156;51.176;6.738;2024-02-15T02:31:32;11.90;91.40
53268;DHT22;39156;51.176;6.738;2024-02-15T02:34:00;11.80;91.40
53268;DHT22;39156;51.176;6.738;2024-02-15T02:36:26;11.90;91.50
53268;DHT22;39156;51.176;6.738;2024-02-15T02:38:54;12.00;91.60
53268;DHT22;39156;51.176;6.738;2024-02-15T02:41:26;11.90;91.40
53268;DHT22;39156;51.176;6.738;2024-02-15T02:43:55;11.80;91.40
53268;DHT22;39156;51.176;6.738;2024-02-15T02:46:22;12.00;91.50
53268;DHT22;39156;51.176;6.738;2024-02-15T02:48:49;11.80;91.50
53268;DHT22;39156;51.176;6.738;2024-02-15T02:51:16;11.80;91.40
53268;DHT22;39156;51.176;6.738;2024-02-15T02:53:43;11.80;91.40
53268;DHT22;39156;51.176;6.738;2024-02-15T02:56:10;11.80;91.40
53268;DHT22;39156;51.176;6.738;2024-02-15T02:58:38;11.80;91.50
53268;DHT22;39156;51.176;6.738;2024-02-15T03:01:09;11.80;91.40
53268;DHT22;39156;51.176;6.738;2024-02-15T03:03:36;11.90;91.50
53268;DHT22;39156;51.176;6.738;2024-02-15T03:06:04;11.80;91.50
53268;DHT22;39156;51.176;6.738;2024-02-15T03:08:31;11.70;91.40
53268;DHT22;39156;51.176;6.738;2024-02-15T03:10:59;11.80;91.50
53268;DHT22;39156;51.176;6.738;2024-02-15T03:13:26;11.70;91.50
53268;DHT22;39156;51.176;6.738;2024-02-15T03:15:53;11.80;91.60
53268;DHT22;39156;51.176;6.738;2024-02-15T03:18:21;11.80;91.40
53268;DHT22;39156;51.176;6.738;2024-02-15T03:20:49;11.80;91.50
53268;DHT22;39156;51.176;6.738;2024-02-15T03:23:16;11.70;91.40
53268;DHT22;39156;51.176;6.738;2024-02-15T03:25:43;11.90;91.70
53268;DHT22;39156;51.176;6.738;2024-02-15T03:28:10;11.90;91.40
53268;DHT22;39156;51.176;6.738;2024-02-15T03:30:37;11.60;91.50
53268;DHT22;39156;51.176;6.738;2024-02-15T03:33:04;11.60;91.20
53268;DHT22;39156;51.176;6.738;2024-02-15T03:35:32;11.60;91.20
53268;DHT22;39156;51.176;6.738;2024-02-15T03:37:59;11.70;91.30
53268;DHT22;39156;51.176;6.738;2024-02-15T03:40:27;11.50;91.20
53268;DHT22;39156;51.176;6.738;2024-02-15T03:42:55;11.60;91.30
53268;DHT22;39156;51.176;6.738;2024-02-15T03:45:22;11.50;91.30
53268;DHT22;39156;51.176;6.738;2024-02-15T03:47:50;11.70;91.50
53268;DHT22;39156;51.176;6.738;2024-02-15T03:50:18;11.60;91.20
53268;DHT22;39156;51.176;6.738;2024-02-15T03:52:49;11.60;91.20
53268;DHT22;39156;51.176;6.738;2024-02-15T03:55:17;11.50;91.20
53268;DHT22;39156;51.176;6.738;2024-02-15T03:57:44;11.50;91.20
53268;DHT22;39156;51.176;6.738;2024-02-15T04:00:12;11.50;91.30
53268;DHT22;39156;51.176;6.738;2024-02-15T04:02:46;11.60;91.30
53268;DHT22;39156;51.176;6.738;2024-02-15T04:05:13;11.50;91.30
53268;DHT22;39156;51.176;6.738;2024-02-15T04:07:40;11.40;91.30
53268;DHT22;39156;51.176;6.738;2024-02-15T04:10:08;11.50;91.30
53268;DHT22;39156;51.176;6.738;2024-02-15T04:12:35;11.40;91.30
53268;DHT22;39156;51.176;6.738;2024-02-15T04:15:03;11.50;91.30
53268;DHT22;39156;51.176;6.738;2024-02-15T04:17:37;11.40;91.30
53268;DHT22;39156;51.176;6.738;2024-02-15T04:20:04;11.70;91.40
53268;DHT22;39156;51.176;6.738;2024-02-15T04:22:32;11.40;91.50
53268;DHT22;39156;51.176;6.738;2024-02-15T04:25:02;11.40;91.30
53268;DHT22;39156;51.176;6.738;2024-02-15T04:27:30;11.50;91.30
53268;DHT22;39156;51.176;6.738;2024-02-15T04:29:57;11.40;91.30
53268;DHT22;39156;51.176;6.738;2024-02-15T04:32:24;11.40;91.30
53268;DHT22;39156;51.176;6.738;2024-02-15T04:34:51;11.50;91.50
53268;DHT22;39156;51.176;6.738;2024-02-15T04:37:18;11.50;91.30
53268;DHT22;39156;51.176;6.738;2024-02-15T04:39:46;11.50;91.40
53268;DHT22;39156;51.176;6.738;2024-02-15T04:42:13;11.40;91.30
53268;DHT22;39156;51.176;6.738;2024-02-15T04:44:42;11.50;91.40
53268;DHT22;39156;51.176;6.738;2024-02-15T04:47:09;11.50;91.40
53268;DHT22;39156;51.176;6.738;2024-02-15T04:49:36;11.40;91.30
53268;DHT22;39156;51.176;6.738;2024-02-15T04:52:04;11.50;91.40
53268;DHT22;39156;51.176;6.738;2024-02-15T04:54:32;11.40;91.30
53268;DHT22;39156;51.176;6.738;2024-02-15T04:56:59;11.50;91.30
53268;DHT22;39156;51.176;6.738;2024-02-15T04:59:26;11.50;91.30
53268;DHT22;39156;51.176;6.738;2024-02-15T05:01:56;11.30;91.30
53268;DHT22;39156;51.176;6.738;2024-02-15T05:04:24;11.50;91.30
53268;DHT22;39156;51.176;6.738;2024-02-15T05:06:51;11.40;91.30
53268;DHT22;39156;51.176;6.738;2024-02-15T05:09:19;11.60;91.30
53268;DHT22;39156;51.176;6.738;2024-02-15T05:11:46;11.40;91.30
53268;DHT22;39156;51.176;6.738;2024-02-15T05:14:13;11.40;91.30
53268;DHT22;39156;51.176;6.738;2024-02-15T05:16:44;11.40;91.30
53268;DHT22;39156;51.176;6.738;2024-02-15T05:19:14;11.40;91.30
53268;DHT22;39156;51.176;6.738;2024-02-15T05:21:41;11.30;91.30
53268;DHT22;39156;51.176;6.738;2024-02-15T05:24:10;11.30;91.20
53268;DHT22;39156;51.176;6.738;2024-02-15T05:26:39;11.30;91.20
53268;DHT22;39156;51.176;6.738;2024-02-15T05:29:08;11.40;91.30
53268;DHT22;39156;51.176;6.738;2024-02-15T05:31:36;11.30;91.30
53268;DHT22;39156;51.176;6.738;2024-02-15T05:34:05;11.40;91.30
53268;DHT22;39156;51.176;6.738;2024-02-15T05:36:38;11.40;91.30
53268;DHT22;39156;51.176;6.738;2024-02-15T05:39:05;11.30;91.30
53268;DHT22;39156;51.176;6.738;2024-02-15T05:41:32;11.40;91.30
53268;DHT22;39156;51.176;6.738;2024-02-15T05:43:59;11.40;91.30
53268;DHT22;39156;51.176;6.738;2024-02-15T05:46:26;11.40;91.50
53268;DHT22;39156;51.176;6.738;2024-02-15T05:48:54;11.40;91.30
53268;DHT22;39156;51.176;6.738;2024-02-15T05:51:22;11.40;91.30
53268;DHT22;39156;51.176;6.738;2024-02-15T05:53:50;11.10;91.20
53268;DHT22;39156;51.176;6.738;2024-02-15T05:56:20;11.30;91.20
53268;DHT22;39156;51.176;6.738;2024-02-15T05:58:47;11.30;91.30
53268;DHT22;39156;51.176;6.738;2024-02-15T06:01:14;11.30;91.30
53268;DHT22;39156;51.176;6.738;2024-02-15T06:03:41;11.40;91.30
53268;DHT22;39156;51.176;6.738;2024-02-15T06:06:09;11.50;91.30
53268;DHT22;39156;51.176;6.738;2024-02-15T06:08:37;11.30;91.30
53268;DHT22;39156;51.176;6.738;2024-02-15T06:11:05;11.30;91.30
53268;DHT22;39156;51.176;6.738;2024-02-15T06:13:32;11.30;91.40
53268;DHT22;39156;51.176;6.738;2024-02-15T06:15:59;11.30;91.40
53268;DHT22;39156;51.176;6.738;2024-02-15T06:18:28;11.30;91.50
53268;DHT22;39156;51.176;6.738;2024-02-15T06:20:59;11.20;91.30
53268;DHT22;39156;51.176;6.738;2024-02-15T06:23:27;11.30;91.40
53268;DHT22;39156;51.176;6.738;2024-02-15T06:25:56;11.30;91.40
53268;DHT22;39156;51.176;6.738;2024-02-15T06:28:25;11.30;91.40
53268;DHT22;39156;51.176;6.738;2024-02-15T06:31:11;11.30;91.40
53268;DHT22;39156;51.176;6.738;2024-02-15T06:33:56;11.30;91.40
53268;DHT22;39156;51.176;6.738;2024-02-15T06:36:41;11.30;91.40
53268;DHT22;39156;51.176;6.738;2024-02-15T06:39:29;11.30;91.40
53268;DHT22;39156;51.176;6.738;2024-02-15T06:42:07;11.30;91.40
53268;DHT22;39156;51.176;6.738;2024-02-15T06:44:36;11.30;91.40
53268;DHT22;39156;51.176;6.738;2024-02-15T06:47:06;11.20;91.40
53268;DHT22;39156;51.176;6.738;2024-02-15T06:49:34;11.30;91.50
53268;DHT22;39156;51.176;6.738;2024-02-15T06:52:01;11.40;91.50
53268;DHT22;39156;51.176;6.738;2024-02-15T06:54:28;11.10;91.40
53268;DHT22;39156;51.176;6.738;2024-02-15T06:56:55;11.20;91.50
53268;DHT22;39156;51.176;6.738;2024-02-15T06:59:22;11.20;91.50
53268;DHT22;39156;51.176;6.738;2024-02-15T07:01:50;11.20;91.50
53268;DHT22;39156;51.176;6.738;2024-02-15T07:04:18;11.30;91.50
53268;DHT22;39156;51.176;6.738;2024-02-15T07:06:46;11.30;91.50
53268;DHT22;39156;51.176;6.738;2024-02-15T07:09:14;11.30;91.50
53268;DHT22;39156;51.176;6.738;2024-02-15T07:11:43;11.30;91.50
53268;DHT22;39156;51.176;6.738;2024-02-15T07:14:11;11.30;91.50
53268;DHT22;39156;51.176;6.738;2024-02-15T07:16:38;11.20;91.50
53268;DHT22;39156;51.176;6.738;2024-02-15T07:19:06;11.20;91.70
53268;DHT22;39156;51.176;6.738;2024-02-15T07:21:34;11.20;91.50
53268;DHT22;39156;51.176;6.738;2024-02-15T07:24:01;11.20;91.50
53268;DHT22;39156;51.176;6.738;2024-02-15T07:26:30;11.30;91.70
53268;DHT22;39156;51.176;6.738;2024-02-15T07:28:58;11.20;91.50
53268;DHT22;39156;51.176;6.738;2024-02-15T07:31:28;11.30;91.50
53268;DHT22;39156;51.176;6.738;2024-02-15T07:33:55;11.40;91.60
53268;DHT22;39156;51.176;6.738;2024-02-15T07:36:24;11.30;91.60
53268;DHT22;39156;51.176;6.738;2024-02-15T07:38:52;11.30;91.90
53268;DHT22;39156;51.176;6.738;2024-02-15T07:41:20;11.30;91.70
53268;DHT22;39156;51.176;6.738;2024-02-15T07:43:48;11.30;91.70
53268;DHT22;39156;51.176;6.738;2024-02-15T07:46:15;11.40;91.70
53268;DHT22;39156;51.176;6.738;2024-02-15T07:48:43;11.30;91.70
53268;DHT22;39156;51.176;6.738;2024-02-15T07:51:12;11.40;91.80
53268;DHT22;39156;51.176;6.738;2024-02-15T07:53:42;11.40;91.80
53268;DHT22;39156;51.176;6.738;2024-02-15T07:56:09;11.30;91.70
53268;DHT22;39156;51.176;6.738;2024-02-15T07:58:38;11.30;91.80
53268;DHT22;39156;51.176;6.738;2024-02-15T08:01:07;11.50;91.80
53268;DHT22;39156;51.176;6.738;2024-02-15T08:03:34;11.30;91.80
53268;DHT22;39156;51.176;6.738;2024-02-15T08:06:02;11.40;92.00
53268;DHT22;39156;51.176;6.738;2024-02-15T08:08:32;11.40;91.80
53268;DHT22;39156;51.176;6.738;2024-02-15T08:11:03;11.40;91.90
53268;DHT22;39156;51.176;6.738;2024-02-15T08:13:31;11.30;91.90
53268;DHT22;39156;51.176;6.738;2024-02-15T08:15:57;11.30;91.90
53268;DHT22;39156;51.176;6.738;2024-02-15T08:18:24;11.40;92.00
53268;DHT22;39156;51.176;6.738;2024-02-15T08:20:51;11.40;92.00
53268;DHT22;39156;51.176;6.738;2024-02-15T08:23:19;11.40;92.10
53268;DHT22;39156;51.176;6.738;2024-02-15T08:25:46;11.40;92.10
53268;DHT22;39156;51.176;6.738;2024-02-15T08:28:14;11.40;92.20
53268;DHT22;39156;51.176;6.738;2024-02-15T08:30:41;11.60;92.30
53268;DHT22;39156;51.176;6.738;2024-02-15T08:33:08;11.50;92.30
53268;DHT22;39156;51.176;6.738;2024-02-15T08:35:36;11.50;92.30
53268;DHT22;39156;51.176;6.738;2024-02-15T08:38:05;11.50;92.20
53268;DHT22;39156;51.176;6.738;2024-02-15T08:40:32;11.80;92.30
53268;DHT22;39156;51.176;6.738;2024-02-15T08:43:00;11.60;92.20
53268;DHT22;39156;51.176;6.738;2024-02-15T08:45:29;11.60;92.20
53268;DHT22;39156;51.176;6.738;2024-02-15T08:47:56;11.70;92.10
53268;DHT22;39156;51.176;6.738;2024-02-15T08:50:23;11.70;92.10
53268;DHT22;39156;51.176;6.738;2024-02-15T08:52:50;11.60;92.00
53268;DHT22;39156;51.176;6.738;2024-02-15T08:55:16;11.70;92.00
53268;DHT22;39156;51.176;6.738;2024-02-15T08:57:46;11.70;92.20
53268;DHT22;39156;51.176;6.738;2024-02-15T09:00:31;11.70;91.90
53268;DHT22;39156;51.176;6.738;2024-02-15T09:03:11;11.80;92.10
53268;DHT22;39156;51.176;6.738;2024-02-15T09:05:38;11.80;91.90
53268;DHT22;39156;51.176;6.738;2024-02-15T09:08:06;11.80;91.90
53268;DHT22;39156;51.176;6.738;2024-02-15T09:10:33;11.80;91.90
53268;DHT22;39156;51.176;6.738;2024-02-15T09:13:01;11.90;92.00
53268;DHT22;39156;51.176;6.738;2024-02-15T09:15:30;11.90;92.00
53268;DHT22;39156;51.176;6.738;2024-02-15T09:17:57;11.80;91.90
53268;DHT22;39156;51.176;6.738;2024-02-15T09:20:24;11.90;91.80
53268;DHT22;39156;51.176;6.738;2024-02-15T09:22:54;12.10;92.00
53268;DHT22;39156;51.176;6.738;2024-02-15T09:25:22;12.00;91.70
53268;DHT22;39156;51.176;6.738;2024-02-15T09:27:50;12.00;91.60
53268;DHT22;39156;51.176;6.738;2024-02-15T09:30:17;12.10;91.60
53268;DHT22;39156;51.176;6.738;2024-02-15T09:32:45;12.10;91.60
53268;DHT22;39156;51.176;6.738;2024-02-15T09:35:13;12.20;91.50
53268;DHT22;39156;51.176;6.738;2024-02-15T09:37:43;12.30;91.40
53268;DHT22;39156;51.176;6.738;2024-02-15T09:40:12;12.20;91.20
53268;DHT22;39156;51.176;6.738;2024-02-15T09:42:41;12.30;91.30
53268;DHT22;39156;51.176;6.738;2024-02-15T09:45:11;12.40;91.30
53268;DHT22;39156;51.176;6.738;2024-02-15T09:47:42;12.40;91.10
53268;DHT22;39156;51.176;6.738;2024-02-15T09:50:11;12.50;91.10
53268;DHT22;39156;51.176;6.738;2024-02-15T09:52:39;12.50;91.00
53268;DHT22;39156;51.176;6.738;2024-02-15T09:55:07;12.60;90.90
53268;DHT22;39156;51.176;6.738;2024-02-15T09:57:38;12.60;90.90
53268;DHT22;39156;51.176;6.738;2024-02-15T10:00:05;12.60;90.90
53268;DHT22;39156;51.176;6.738;2024-02-15T10:02:33;12.70;90.90
53268;DHT22;39156;51.176;6.738;2024-02-15T10:05:02;12.70;90.80
53268;DHT22;39156;51.176;6.738;2024-02-15T10:07:30;12.80;90.80
53268;DHT22;39156;51.176;6.738;2024-02-15T10:10:14;12.70;90.60
53268;DHT22;39156;51.176;6.738;2024-02-15T10:12:45;12.80;90.50
53268;DHT22;39156;51.176;6.738;2024-02-15T10:15:27;12.90;90.50
53268;DHT22;39156;51.176;6.738;2024-02-15T10:17:56;12.80;90.40
53268;DHT22;39156;51.176;6.738;2024-02-15T10:20:24;12.90;90.40
53268;DHT22;39156;51.176;6.738;2024-02-15T10:22:53;12.90;90.50
53268;DHT22;39156;51.176;6.738;2024-02-15T10:25:21;12.80;90.40
53268;DHT22;39156;51.176;6.738;2024-02-15T10:27:49;12.80;90.40
53268;DHT22;39156;51.176;6.738;2024-02-15T10:30:17;12.80;90.40
53268;DHT22;39156;51.176;6.738;2024-02-15T10:32:45;12.90;90.50
53268;DHT22;39156;51.176;6.738;2024-02-15T10:35:20;12.80;90.40
53268;DHT22;39156;51.176;6.738;2024-02-15T10:37:48;12.90;90.40
53268;DHT22;39156;51.176;6.738;2024-02-15T10:40:21;12.80;90.40
53268;DHT22;39156;51.176;6.738;2024-02-15T10:42:51;12.90;90.30
53268;DHT22;39156;51.176;6.738;2024-02-15T10:45:18;12.90;90.40
53268;DHT22;39156;51.176;6.738;2024-02-15T10:47:46;13.00;90.40
53268;DHT22;39156;51.176;6.738;2024-02-15T10:50:14;13.00;90.40
53268;DHT22;39156;51.176;6.738;2024-02-15T10:52:48;13.10;90.40
53268;DHT22;39156;51.176;6.738;2024-02-15T10:55:37;13.10;90.10
53268;DHT22;39156;51.176;6.738;2024-02-15T10:58:05;13.30;90.10
53268;DHT22;39156;51.176;6.738;2024-02-15T11:00:34;13.30;90.40
53268;DHT22;39156;51.176;6.738;2024-02-15T11:03:03;13.40;90.00
53268;DHT22;39156;51.176;6.738;2024-02-15T11:05:32;13.40;90.00
53268;DHT22;39156;51.176;6.738;2024-02-15T11:08:05;13.50;89.90
53268;DHT22;39156;51.176;6.738;2024-02-15T11:10:34;13.60;89.60
53268;DHT22;39156;51.176;6.738;2024-02-15T11:13:02;13.70;89.60
53268;DHT22;39156;51.176;6.738;2024-02-15T11:15:44;13.70;89.50
53268;DHT22;39156;51.176;6.738;2024-02-15T11:18:42;13.90;89.20
53268;DHT22;39156;51.176;6.738;2024-02-15T11:21:11;14.00;88.20
53268;DHT22;39156;51.176;6.738;2024-02-15T11:23:38;14.00;88.70
53268;DHT22;39156;51.176;6.738;2024-02-15T11:26:08;14.10;88.30
53268;DHT22;39156;51.176;6.738;2024-02-15T11:28:43;14.10;87.90
53268;DHT22;39156;51.176;6.738;2024-02-15T11:34:41;14.20;86.90
53268;DHT22;39156;51.176;6.738;2024-02-15T11:37:13;14.40;87.20
53268;DHT22;39156;51.176;6.738;2024-02-15T11:40:21;14.40;87.20
53268;DHT22;39156;51.176;6.738;2024-02-15T11:42:50;14.50;87.10
53268;DHT22;39156;51.176;6.738;2024-02-15T11:45:18;14.60;86.80
53268;DHT22;39156;51.176;6.738;2024-02-15T11:47:50;14.60;86.80
53268;DHT22;39156;51.176;6.738;2024-02-15T11:50:20;14.60;86.20
53268;DHT22;39156;51.176;6.738;2024-02-15T11:52:49;14.70;86.50
53268;DHT22;39156;51.176;6.738;2024-02-15T11:55:21;14.70;86.60
53268;DHT22;39156;51.176;6.738;2024-02-15T11:57:55;14.80;86.00
53268;DHT22;39156;51.176;6.738;2024-02-15T12:00:28;14.90;85.00
53268;DHT22;39156;51.176;6.738;2024-02-15T12:03:14;14.90;85.20
53268;DHT22;39156;51.176;6.738;2024-02-15T12:05:59;15.00;85.20
53268;DHT22;39156;51.176;6.738;2024-02-15T12:08:45;15.00;85.10
53268;DHT22;39156;51.176;6.738;2024-02-15T12:11:37;15.10;85.00
53268;DHT22;39156;51.176;6.738;2024-02-15T12:14:21;15.10;85.00
53268;DHT22;39156;51.176;6.738;2024-02-15T12:17:07;15.10;84.80
53268;DHT22;39156;51.176;6.738;2024-02-15T12:19:53;15.20;84.60
53268;DHT22;39156;51.176;6.738;2024-02-15T12:22:23;15.20;84.50
53268;DHT22;39156;51.176;6.738;2024-02-15T12:24:55;15.30;84.30
53268;DHT22;39156;51.176;6.738;2024-02-15T12:27:24;15.30;84.30
53268;DHT22;39156;51.176;6.738;2024-02-15T12:29:56;15.30;84.10
53268;DHT22;39156;51.176;6.738;2024-02-15T12:32:24;15.40;83.80
53268;DHT22;39156;51.176;6.738;2024-02-15T12:34:52;15.40;83.80
53268;DHT22;39156;51.176;6.738;2024-02-15T12:37:21;15.40;83.60
53268;DHT22;39156;51.176;6.738;2024-02-15T12:39:49;15.40;84.30
53268;DHT22;39156;51.176;6.738;2024-02-15T12:42:16;15.50;83.40
53268;DHT22;39156;51.176;6.738;2024-02-15T12:44:47;15.50;83.30
53268;DHT22;39156;51.176;6.738;2024-02-15T12:47:23;15.50;83.10
53268;DHT22;39156;51.176;6.738;2024-02-15T12:49:50;15.50;82.60
53268;DHT22;39156;51.176;6.738;2024-02-15T12:52:34;15.50;82.90
53268;DHT22;39156;51.176;6.738;2024-02-15T12:55:11;15.50;82.80
53268;DHT22;39156;51.176;6.738;2024-02-15T12:57:40;15.50;82.20
53268;DHT22;39156;51.176;6.738;2024-02-15T13:00:13;15.50;82.50
53268;DHT22;39156;51.176;6.738;2024-02-15T13:02:44;15.50;82.50
53268;DHT22;39156;51.176;6.738;2024-02-15T13:05:11;15.50;82.60
53268;DHT22;39156;51.176;6.738;2024-02-15T13:07:39;15.60;82.50
53268;DHT22;39156;51.176;6.738;2024-02-15T13:10:06;15.50;82.40
53268;DHT22;39156;51.176;6.738;2024-02-15T13:12:34;15.60;82.50
53268;DHT22;39156;51.176;6.738;2024-02-15T13:15:02;15.60;82.50
53268;DHT22;39156;51.176;6.738;2024-02-15T13:17:33;15.60;82.30
53268;DHT22;39156;51.176;6.738;2024-02-15T13:20:00;15.60;82.10
53268;DHT22;39156;51.176;6.738;2024-02-15T13:22:32;15.60;82.30
53268;DHT22;39156;51.176;6.738;2024-02-15T13:25:00;15.60;82.10
53268;DHT22;39156;51.176;6.738;2024-02-15T13:27:28;15.60;81.90
53268;DHT22;39156;51.176;6.738;2024-02-15T13:29:56;15.60;81.90
53268;DHT22;39156;51.176;6.738;2024-02-15T13:32:23;15.60;81.70
53268;DHT22;39156;51.176;6.738;2024-02-15T13:34:52;15.70;82.30
53268;DHT22;39156;51.176;6.738;2024-02-15T13:37:21;15.60;81.30
53268;DHT22;39156;51.176;6.738;2024-02-15T13:39:49;15.60;81.30
53268;DHT22;39156;51.176;6.738;2024-02-15T13:42:16;15.70;81.40
53268;DHT22;39156;51.176;6.738;2024-02-15T13:44:44;15.70;81.60
53268;DHT22;39156;51.176;6.738;2024-02-15T13:47:12;15.70;81.10
53268;DHT22;39156;51.176;6.738;2024-02-15T13:49:41;15.80;81.20
53268;DHT22;39156;51.176;6.738;2024-02-15T13:52:09;15.80;81.30
53268;DHT22;39156;51.176;6.738;2024-02-15T13:54:36;15.80;81.10
53268;DHT22;39156;51.176;6.738;2024-02-15T13:57:03;15.80;80.80
53268;DHT22;39156;51.176;6.738;2024-02-15T13:59:31;15.80;80.90
53268;DHT22;39156;51.176;6.738;2024-02-15T14:02:00;15.80;80.50
53268;DHT22;39156;51.176;6.738;2024-02-15T14:04:29;15.80;80.50
53268;DHT22;39156;51.176;6.738;2024-02-15T14:06:57;15.90;80.50
53268;DHT22;39156;51.176;6.738;2024-02-15T14:09:27;16.00;79.90
53268;DHT22;39156;51.176;6.738;2024-02-15T14:11:54;15.90;80.10
53268;DHT22;39156;51.176;6.738;2024-02-15T14:14:21;15.90;79.90
53268;DHT22;39156;51.176;6.738;2024-02-15T14:16:48;15.90;80.30
53268;DHT22;39156;51.176;6.738;2024-02-15T14:19:15;15.90;79.70
53268;DHT22;39156;51.176;6.738;2024-02-15T14:21:43;15.90;79.60
53268;DHT22;39156;51.176;6.738;2024-02-15T14:24:10;15.90;79.20
53268;DHT22;39156;51.176;6.738;2024-02-15T14:26:40;16.00;79.10
53268;DHT22;39156;51.176;6.738;2024-02-15T14:29:07;15.90;78.50
53268;DHT22;39156;51.176;6.738;2024-02-15T14:31:35;16.00;78.50
53268;DHT22;39156;51.176;6.738;2024-02-15T14:34:19;15.90;78.80
53268;DHT22;39156;51.176;6.738;2024-02-15T14:36:46;15.90;78.40
53268;DHT22;39156;51.176;6.738;2024-02-15T14:39:13;15.90;78.10
53268;DHT22;39156;51.176;6.738;2024-02-15T14:41:42;16.00;78.40
53268;DHT22;39156;51.176;6.738;2024-02-15T14:44:10;15.90;78.20
53268;DHT22;39156;51.176;6.738;2024-02-15T14:46:38;15.90;78.20
53268;DHT22;39156;51.176;6.738;2024-02-15T14:49:05;16.00;78.10
53268;DHT22;39156;51.176;6.738;2024-02-15T14:51:33;16.00;77.90
53268;DHT22;39156;51.176;6.738;2024-02-15T14:54:02;16.00;77.50
53268;DHT22;39156;51.176;6.738;2024-02-15T14:56:30;15.90;77.30
53268;DHT22;39156;51.176;6.738;2024-02-15T14:58:59;15.90;77.50
53268;DHT22;39156;51.176;6.738;2024-02-15T15:01:27;15.90;77.80
53268;DHT22;39156;51.176;6.738;2024-02-15T15:03:55;15.90;77.90
53268;DHT22;39156;51.176;6.738;2024-02-15T15:06:24;15.90;77.80
53268;DHT22;39156;51.176;6.738;2024-02-15T15:09:09;15.90;77.80
53268;DHT22;39156;51.176;6.738;2024-02-15T15:11:54;15.80;77.80
53268;DHT22;39156;51.176;6.738;2024-02-15T15:14:40;15.90;77.80
53268;DHT22;39156;51.176;6.738;2024-02-15T15:17:07;15.90;77.80
53268;DHT22;39156;51.176;6.738;2024-02-15T15:19:36;15.80;77.70
53268;DHT22;39156;51.176;6.738;2024-02-15T15:22:03;15.70;77.60
53268;DHT22;39156;51.176;6.738;2024-02-15T15:24:32;15.70;78.00
53268;DHT22;39156;51.176;6.738;2024-02-15T15:27:00;15.60;78.10
53268;DHT22;39156;51.176;6.738;2024-02-15T15:29:27;15.80;78.00
53268;DHT22;39156;51.176;6.738;2024-02-15T15:31:57;15.60;77.70
53268;DHT22;39156;51.176;6.738;2024-02-15T15:34:24;15.60;77.80
53268;DHT22;39156;51.176;6.738;2024-02-15T15:36:51;15.60;78.20
53268;DHT22;39156;51.176;6.738;2024-02-15T15:39:20;15.60;78.30
53268;DHT22;39156;51.176;6.738;2024-02-15T15:41:50;15.50;78.20
53268;DHT22;39156;51.176;6.738;2024-02-15T15:44:19;15.60;78.10
53268;DHT22;39156;51.176;6.738;2024-02-15T15:46:48;15.70;78.20